Terminal Aerodrome Forecast
Issued by NWS Billings, MT

Home | Current Version | Previous Version | Text Only | Print | Product List | Glossary On
Versions: 1 2 3 4 5 6 7 8 9 10 11 12 13 14 15 16 17 18 19 20 21 22 23 24
000
FTUS45 KBYZ 231720
TAFBIL
TAF
KBIL 231720Z 2318/2418 05014KT P6SM VCSH SCT010 OVC020
      TEMPO 2319/2322 2SM -SHSN BKN010
     FM232200 05008KT P6SM VCSH OVC015
     FM240300 06005KT 6SM -SN BKN005 OVC010
     FM241400 05011KT P6SM VCSH OVC015=

USA.gov is the U.S. government's official web portal to all federal, state and local government web resources and services.